sensor_id;sensor_type;location;lat;lon;timestamp;P1;durP1;ratioP1;P2;durP2;ratioP2
6249;SDS011;3158;52.148;11.568;2023-03-07T00:03:54;10.63;;;5.03;;
6249;SDS011;3158;52.148;11.568;2023-03-07T00:08:57;12.20;;;6.07;;
6249;SDS011;3158;52.148;11.568;2023-03-07T00:13:58;14.90;;;7.65;;
6249;SDS011;3158;52.148;11.568;2023-03-07T00:18:59;14.13;;;7.25;;
6249;SDS011;3158;52.148;11.568;2023-03-07T00:24:00;17.77;;;7.80;;
6249;SDS011;3158;52.148;11.568;2023-03-07T00:29:01;13.63;;;6.57;;
6249;SDS011;3158;52.148;11.568;2023-03-07T00:34:02;17.17;;;7.30;;
6249;SDS011;3158;52.148;11.568;2023-03-07T00:39:04;15.55;;;6.93;;
6249;SDS011;3158;52.148;11.568;2023-03-07T00:44:05;18.88;;;6.93;;
6249;SDS011;3158;52.148;11.568;2023-03-07T00:49:06;14.38;;;7.60;;
6249;SDS011;3158;52.148;11.568;2023-03-07T00:54:07;17.33;;;8.18;;
6249;SDS011;3158;52.148;11.568;2023-03-07T00:59:09;18.40;;;8.18;;
6249;SDS011;3158;52.148;11.568;2023-03-07T01:04:10;16.35;;;8.43;;
6249;SDS011;3158;52.148;11.568;2023-03-07T01:09:11;20.60;;;9.27;;
6249;SDS011;3158;52.148;11.568;2023-03-07T01:14:13;16.38;;;6.97;;
6249;SDS011;3158;52.148;11.568;2023-03-07T01:19:14;11.70;;;7.18;;
6249;SDS011;3158;52.148;11.568;2023-03-07T01:24:15;19.75;;;8.35;;
6249;SDS011;3158;52.148;11.568;2023-03-07T01:29:17;18.05;;;8.13;;
6249;SDS011;3158;52.148;11.568;2023-03-07T01:34:18;17.90;;;7.68;;
6249;SDS011;3158;52.148;11.568;2023-03-07T01:39:19;17.75;;;8.13;;
6249;SDS011;3158;52.148;11.568;2023-03-07T01:44:28;17.70;;;8.00;;
6249;SDS011;3158;52.148;11.568;2023-03-07T01:49:33;14.05;;;7.05;;
6249;SDS011;3158;52.148;11.568;2023-03-07T01:54:38;26.98;;;9.60;;
6249;SDS011;3158;52.148;11.568;2023-03-07T01:59:41;15.27;;;7.30;;
6249;SDS011;3158;52.148;11.568;2023-03-07T02:09:48;17.95;;;8.00;;
6249;SDS011;3158;52.148;11.568;2023-03-07T02:14:49;19.88;;;8.25;;
6249;SDS011;3158;52.148;11.568;2023-03-07T02:25:04;15.23;;;7.13;;
6249;SDS011;3158;52.148;11.568;2023-03-07T02:30:07;15.68;;;6.82;;
6249;SDS011;3158;52.148;11.568;2023-03-07T02:35:12;11.98;;;6.22;;
6249;SDS011;3158;52.148;11.568;2023-03-07T02:40:14;15.48;;;7.47;;
6249;SDS011;3158;52.148;11.568;2023-03-07T02:45:17;23.00;;;8.13;;
6249;SDS011;3158;52.148;11.568;2023-03-07T02:50:18;17.27;;;7.80;;
6249;SDS011;3158;52.148;11.568;2023-03-07T02:55:23;15.95;;;7.40;;
6249;SDS011;3158;52.148;11.568;2023-03-07T03:00:31;16.58;;;7.63;;
6249;SDS011;3158;52.148;11.568;2023-03-07T03:05:32;16.05;;;8.25;;
6249;SDS011;3158;52.148;11.568;2023-03-07T03:10:33;13.93;;;7.55;;
6249;SDS011;3158;52.148;11.568;2023-03-07T03:15:35;16.65;;;5.75;;
6249;SDS011;3158;52.148;11.568;2023-03-07T03:20:40;19.33;;;7.65;;
6249;SDS011;3158;52.148;11.568;2023-03-07T03:25:41;17.95;;;7.68;;
6249;SDS011;3158;52.148;11.568;2023-03-07T03:30:43;14.00;;;6.03;;
6249;SDS011;3158;52.148;11.568;2023-03-07T03:35:44;7.20;;;4.93;;
6249;SDS011;3158;52.148;11.568;2023-03-07T03:40:45;12.40;;;6.18;;
6249;SDS011;3158;52.148;11.568;2023-03-07T03:45:56;8.73;;;5.47;;
6249;SDS011;3158;52.148;11.568;2023-03-07T03:51:02;13.50;;;6.15;;
6249;SDS011;3158;52.148;11.568;2023-03-07T04:01:07;8.88;;;4.88;;
6249;SDS011;3158;52.148;11.568;2023-03-07T04:06:10;16.67;;;6.00;;
6249;SDS011;3158;52.148;11.568;2023-03-07T04:11:12;9.73;;;4.43;;
6249;SDS011;3158;52.148;11.568;2023-03-07T04:16:13;7.47;;;3.78;;
6249;SDS011;3158;52.148;11.568;2023-03-07T04:21:15;5.85;;;4.22;;
6249;SDS011;3158;52.148;11.568;2023-03-07T04:26:17;10.05;;;4.47;;
6249;SDS011;3158;52.148;11.568;2023-03-07T04:31:19;8.55;;;4.53;;
6249;SDS011;3158;52.148;11.568;2023-03-07T04:36:21;5.45;;;3.80;;
6249;SDS011;3158;52.148;11.568;2023-03-07T04:41:25;8.75;;;4.15;;
6249;SDS011;3158;52.148;11.568;2023-03-07T04:46:31;5.82;;;3.33;;
6249;SDS011;3158;52.148;11.568;2023-03-07T04:51:32;4.15;;;3.15;;
6249;SDS011;3158;52.148;11.568;2023-03-07T04:56:34;5.72;;;3.60;;
6249;SDS011;3158;52.148;11.568;2023-03-07T05:01:35;3.78;;;2.80;;
6249;SDS011;3158;52.148;11.568;2023-03-07T05:06:37;4.80;;;3.20;;
6249;SDS011;3158;52.148;11.568;2023-03-07T05:11:40;3.45;;;3.15;;
6249;SDS011;3158;52.148;11.568;2023-03-07T05:16:41;4.45;;;2.78;;
6249;SDS011;3158;52.148;11.568;2023-03-07T05:21:42;4.97;;;2.85;;
6249;SDS011;3158;52.148;11.568;2023-03-07T05:26:43;2.42;;;2.33;;
6249;SDS011;3158;52.148;11.568;2023-03-07T05:31:44;2.83;;;2.30;;
6249;SDS011;3158;52.148;11.568;2023-03-07T05:36:46;4.03;;;3.05;;
6249;SDS011;3158;52.148;11.568;2023-03-07T05:41:49;2.67;;;2.45;;
6249;SDS011;3158;52.148;11.568;2023-03-07T05:46:50;2.88;;;2.42;;
6249;SDS011;3158;52.148;11.568;2023-03-07T05:51:51;3.30;;;2.95;;
6249;SDS011;3158;52.148;11.568;2023-03-07T05:56:54;1.90;;;1.70;;
6249;SDS011;3158;52.148;11.568;2023-03-07T06:01:55;1.65;;;1.55;;
6249;SDS011;3158;52.148;11.568;2023-03-07T06:06:57;3.25;;;2.80;;
6249;SDS011;3158;52.148;11.568;2023-03-07T06:11:59;3.97;;;2.65;;
6249;SDS011;3158;52.148;11.568;2023-03-07T06:17:00;2.85;;;2.45;;
6249;SDS011;3158;52.148;11.568;2023-03-07T06:29:24;1.65;;;1.55;;
6249;SDS011;3158;52.148;11.568;2023-03-07T06:34:26;3.20;;;2.90;;
6249;SDS011;3158;52.148;11.568;2023-03-07T06:39:27;2.83;;;2.63;;
6249;SDS011;3158;52.148;11.568;2023-03-07T06:44:29;3.70;;;2.38;;
6249;SDS011;3158;52.148;11.568;2023-03-07T06:49:30;2.45;;;2.25;;
6249;SDS011;3158;52.148;11.568;2023-03-07T06:54:31;2.50;;;2.30;;
6249;SDS011;3158;52.148;11.568;2023-03-07T06:59:32;2.38;;;2.17;;
6249;SDS011;3158;52.148;11.568;2023-03-07T07:04:34;3.65;;;2.28;;
6249;SDS011;3158;52.148;11.568;2023-03-07T07:09:35;4.28;;;3.63;;
6249;SDS011;3158;52.148;11.568;2023-03-07T07:14:36;5.20;;;2.95;;
6249;SDS011;3158;52.148;11.568;2023-03-07T07:19:38;2.47;;;2.28;;
6249;SDS011;3158;52.148;11.568;2023-03-07T07:24:39;2.28;;;2.15;;
6249;SDS011;3158;52.148;11.568;2023-03-07T07:29:41;2.97;;;2.35;;
6249;SDS011;3158;52.148;11.568;2023-03-07T07:34:43;2.03;;;1.92;;
6249;SDS011;3158;52.148;11.568;2023-03-07T07:39:44;3.30;;;2.33;;
6249;SDS011;3158;52.148;11.568;2023-03-07T07:44:45;1.60;;;1.55;;
6249;SDS011;3158;52.148;11.568;2023-03-07T07:49:48;2.30;;;2.05;;
6249;SDS011;3158;52.148;11.568;2023-03-07T07:54:49;2.67;;;2.22;;
6249;SDS011;3158;52.148;11.568;2023-03-07T07:59:50;1.85;;;1.77;;
6249;SDS011;3158;52.148;11.568;2023-03-07T08:04:51;2.25;;;2.15;;
6249;SDS011;3158;52.148;11.568;2023-03-07T08:09:52;1.95;;;1.70;;
6249;SDS011;3158;52.148;11.568;2023-03-07T08:14:53;2.80;;;2.13;;
6249;SDS011;3158;52.148;11.568;2023-03-07T08:19:54;5.25;;;2.38;;
6249;SDS011;3158;52.148;11.568;2023-03-07T08:25:00;2.55;;;2.35;;
6249;SDS011;3158;52.148;11.568;2023-03-07T08:30:01;3.00;;;2.17;;
6249;SDS011;3158;52.148;11.568;2023-03-07T08:35:02;4.07;;;1.42;;
6249;SDS011;3158;52.148;11.568;2023-03-07T08:40:03;2.28;;;2.10;;
6249;SDS011;3158;52.148;11.568;2023-03-07T08:45:04;3.55;;;2.38;;
6249;SDS011;3158;52.148;11.568;2023-03-07T08:50:06;2.10;;;1.95;;
6249;SDS011;3158;52.148;11.568;2023-03-07T08:55:07;1.35;;;1.25;;
6249;SDS011;3158;52.148;11.568;2023-03-07T09:00:08;1.80;;;1.70;;
6249;SDS011;3158;52.148;11.568;2023-03-07T09:05:11;1.63;;;1.58;;
6249;SDS011;3158;52.148;11.568;2023-03-07T09:10:12;1.80;;;1.48;;
6249;SDS011;3158;52.148;11.568;2023-03-07T09:15:13;1.60;;;1.17;;
6249;SDS011;3158;52.148;11.568;2023-03-07T09:20:14;1.13;;;1.13;;
6249;SDS011;3158;52.148;11.568;2023-03-07T09:30:49;1.10;;;1.10;;
6249;SDS011;3158;52.148;11.568;2023-03-07T09:36:11;0.98;;;0.98;;
6249;SDS011;3158;52.148;11.568;2023-03-07T09:41:23;0.88;;;0.88;;
6249;SDS011;3158;52.148;11.568;2023-03-07T09:46:38;0.82;;;0.82;;
6249;SDS011;3158;52.148;11.568;2023-03-07T09:51:43;0.80;;;0.80;;
6249;SDS011;3158;52.148;11.568;2023-03-07T09:56:53;0.70;;;0.70;;
6249;SDS011;3158;52.148;11.568;2023-03-07T10:02:02;0.60;;;0.60;;
6249;SDS011;3158;52.148;11.568;2023-03-07T10:07:04;0.88;;;0.88;;
6249;SDS011;3158;52.148;11.568;2023-03-07T10:12:21;0.73;;;0.73;;
6249;SDS011;3158;52.148;11.568;2023-03-07T10:17:45;0.50;;;0.50;;
6249;SDS011;3158;52.148;11.568;2023-03-07T10:28:17;0.30;;;0.30;;
6249;SDS011;3158;52.148;11.568;2023-03-07T10:33:19;0.20;;;0.20;;
6249;SDS011;3158;52.148;11.568;2023-03-07T10:38:27;0.85;;;0.20;;
6249;SDS011;3158;52.148;11.568;2023-03-07T10:43:32;0.60;;;0.20;;
6249;SDS011;3158;52.148;11.568;2023-03-07T10:48:33;0.30;;;0.20;;
6249;SDS011;3158;52.148;11.568;2023-03-07T10:53:37;0.20;;;0.20;;
6249;SDS011;3158;52.148;11.568;2023-03-07T10:58:39;0.10;;;0.10;;
6249;SDS011;3158;52.148;11.568;2023-03-07T11:03:49;0.20;;;0.20;;
6249;SDS011;3158;52.148;11.568;2023-03-07T11:08:50;3.63;;;0.40;;
6249;SDS011;3158;52.148;11.568;2023-03-07T11:14:08;1.00;;;0.20;;
6249;SDS011;3158;52.148;11.568;2023-03-07T11:19:25;1.90;;;0.20;;
6249;SDS011;3158;52.148;11.568;2023-03-07T11:24:35;3.30;;;0.40;;
6249;SDS011;3158;52.148;11.568;2023-03-07T11:29:36;1.65;;;0.40;;
6249;SDS011;3158;52.148;11.568;2023-03-07T11:44:59;0.47;;;0.30;;
6249;SDS011;3158;52.148;11.568;2023-03-07T11:50:04;0.35;;;0.32;;
6249;SDS011;3158;52.148;11.568;2023-03-07T12:05:39;0.55;;;0.40;;
6249;SDS011;3158;52.148;11.568;2023-03-07T12:26:20;0.32;;;0.32;;
6249;SDS011;3158;52.148;11.568;2023-03-07T12:31:26;1.65;;;0.25;;
6249;SDS011;3158;52.148;11.568;2023-03-07T12:36:33;0.32;;;0.32;;
6249;SDS011;3158;52.148;11.568;2023-03-07T12:41:46;0.60;;;0.60;;
6249;SDS011;3158;52.148;11.568;2023-03-07T12:46:55;0.47;;;0.40;;
6249;SDS011;3158;52.148;11.568;2023-03-07T12:51:58;0.60;;;0.40;;
6249;SDS011;3158;52.148;11.568;2023-03-07T12:57:01;0.38;;;0.38;;
6249;SDS011;3158;52.148;11.568;2023-03-07T13:02:05;0.47;;;0.35;;
6249;SDS011;3158;52.148;11.568;2023-03-07T13:07:11;0.30;;;0.20;;
6249;SDS011;3158;52.148;11.568;2023-03-07T13:53:33;0.20;;;0.20;;
6249;SDS011;3158;52.148;11.568;2023-03-07T13:58:39;1.17;;;0.25;;
6249;SDS011;3158;52.148;11.568;2023-03-07T14:03:44;0.20;;;0.20;;
6249;SDS011;3158;52.148;11.568;2023-03-07T14:08:49;0.35;;;0.20;;
6249;SDS011;3158;52.148;11.568;2023-03-07T14:19:14;0.15;;;0.15;;
6249;SDS011;3158;52.148;11.568;2023-03-07T14:29:26;0.40;;;0.40;;
6249;SDS011;3158;52.148;11.568;2023-03-07T14:34:31;0.30;;;0.30;;
6249;SDS011;3158;52.148;11.568;2023-03-07T14:39:45;0.35;;;0.35;;
6249;SDS011;3158;52.148;11.568;2023-03-07T16:10:30;1.50;;;1.08;;
6249;SDS011;3158;52.148;11.568;2023-03-07T16:15:33;0.40;;;0.40;;
6249;SDS011;3158;52.148;11.568;2023-03-07T16:20:34;0.77;;;0.55;;
6249;SDS011;3158;52.148;11.568;2023-03-07T16:25:35;0.50;;;0.50;;
6249;SDS011;3158;52.148;11.568;2023-03-07T16:30:36;1.23;;;0.47;;
6249;SDS011;3158;52.148;11.568;2023-03-07T16:35:38;2.15;;;0.77;;
6249;SDS011;3158;52.148;11.568;2023-03-07T16:40:40;0.50;;;0.50;;
6249;SDS011;3158;52.148;11.568;2023-03-07T16:45:42;1.05;;;0.52;;
6249;SDS011;3158;52.148;11.568;2023-03-07T16:50:43;0.80;;;0.70;;
6249;SDS011;3158;52.148;11.568;2023-03-07T16:55:44;0.40;;;0.40;;
6249;SDS011;3158;52.148;11.568;2023-03-07T17:00:45;0.43;;;0.40;;
6249;SDS011;3158;52.148;11.568;2023-03-07T17:05:46;0.38;;;0.38;;
6249;SDS011;3158;52.148;11.568;2023-03-07T17:10:47;0.70;;;0.30;;
6249;SDS011;3158;52.148;11.568;2023-03-07T17:15:48;0.30;;;0.30;;
6249;SDS011;3158;52.148;11.568;2023-03-07T17:20:49;0.32;;;0.32;;
6249;SDS011;3158;52.148;11.568;2023-03-07T17:25:51;0.20;;;0.20;;
6249;SDS011;3158;52.148;11.568;2023-03-07T17:30:52;0.28;;;0.28;;
6249;SDS011;3158;52.148;11.568;2023-03-07T17:35:53;0.10;;;0.10;;
6249;SDS011;3158;52.148;11.568;2023-03-07T17:40:56;0.25;;;0.20;;
6249;SDS011;3158;52.148;11.568;2023-03-07T17:45:57;2.63;;;0.50;;
6249;SDS011;3158;52.148;11.568;2023-03-07T17:50:58;0.22;;;0.22;;
6249;SDS011;3158;52.148;11.568;2023-03-07T17:56:04;2.35;;;0.40;;
6249;SDS011;3158;52.148;11.568;2023-03-07T18:01:06;0.40;;;0.40;;
6249;SDS011;3158;52.148;11.568;2023-03-07T18:06:07;1.85;;;0.40;;
6249;SDS011;3158;52.148;11.568;2023-03-07T18:11:09;1.65;;;0.30;;
6249;SDS011;3158;52.148;11.568;2023-03-07T18:16:11;1.80;;;0.50;;
6249;SDS011;3158;52.148;11.568;2023-03-07T18:21:13;0.30;;;0.20;;
6249;SDS011;3158;52.148;11.568;2023-03-07T18:26:15;3.38;;;0.30;;
6249;SDS011;3158;52.148;11.568;2023-03-07T18:31:18;1.65;;;1.45;;
6249;SDS011;3158;52.148;11.568;2023-03-07T18:36:21;5.25;;;2.63;;
6249;SDS011;3158;52.148;11.568;2023-03-07T18:41:24;5.15;;;2.13;;
6249;SDS011;3158;52.148;11.568;2023-03-07T18:46:26;7.43;;;3.03;;
6249;SDS011;3158;52.148;11.568;2023-03-07T18:51:31;6.20;;;2.63;;
6249;SDS011;3158;52.148;11.568;2023-03-07T18:56:32;4.50;;;2.30;;
6249;SDS011;3158;52.148;11.568;2023-03-07T19:01:34;4.22;;;1.80;;
6249;SDS011;3158;52.148;11.568;2023-03-07T19:06:36;0.77;;;0.60;;
6249;SDS011;3158;52.148;11.568;2023-03-07T19:11:38;1.00;;;1.00;;
6249;SDS011;3158;52.148;11.568;2023-03-07T19:16:39;1.58;;;0.70;;
6249;SDS011;3158;52.148;11.568;2023-03-07T19:21:40;1.02;;;0.60;;
6249;SDS011;3158;52.148;11.568;2023-03-07T19:26:41;4.82;;;0.70;;
6249;SDS011;3158;52.148;11.568;2023-03-07T19:31:42;1.42;;;0.52;;
6249;SDS011;3158;52.148;11.568;2023-03-07T19:36:43;4.47;;;0.45;;
6249;SDS011;3158;52.148;11.568;2023-03-07T19:41:45;0.20;;;0.20;;
6249;SDS011;3158;52.148;11.568;2023-03-07T19:46:47;2.60;;;0.30;;
6249;SDS011;3158;52.148;11.568;2023-03-07T19:51:48;0.47;;;0.47;;
6249;SDS011;3158;52.148;11.568;2023-03-07T19:56:48;1.05;;;0.30;;
6249;SDS011;3158;52.148;11.568;2023-03-07T20:01:51;0.60;;;0.30;;
6249;SDS011;3158;52.148;11.568;2023-03-07T20:06:51;1.85;;;0.60;;
6249;SDS011;3158;52.148;11.568;2023-03-07T20:11:53;2.15;;;0.35;;
6249;SDS011;3158;52.148;11.568;2023-03-07T20:16:55;1.67;;;0.70;;
6249;SDS011;3158;52.148;11.568;2023-03-07T20:21:56;1.27;;;0.70;;
6249;SDS011;3158;52.148;11.568;2023-03-07T20:26:57;2.15;;;1.00;;
6249;SDS011;3158;52.148;11.568;2023-03-07T20:31:58;0.55;;;0.55;;
6249;SDS011;3158;52.148;11.568;2023-03-07T20:37:00;1.30;;;1.20;;
6249;SDS011;3158;52.148;11.568;2023-03-07T20:42:01;3.28;;;0.93;;
6249;SDS011;3158;52.148;11.568;2023-03-07T20:47:02;1.13;;;1.13;;
6249;SDS011;3158;52.148;11.568;2023-03-07T20:52:03;7.70;;;1.85;;
6249;SDS011;3158;52.148;11.568;2023-03-07T20:57:04;1.55;;;1.48;;
6249;SDS011;3158;52.148;11.568;2023-03-07T21:02:05;2.17;;;2.00;;
6249;SDS011;3158;52.148;11.568;2023-03-07T21:07:06;3.08;;;2.88;;
6249;SDS011;3158;52.148;11.568;2023-03-07T21:12:07;2.25;;;2.08;;
6249;SDS011;3158;52.148;11.568;2023-03-07T21:17:10;3.53;;;2.97;;
6249;SDS011;3158;52.148;11.568;2023-03-07T21:22:12;3.20;;;2.60;;
6249;SDS011;3158;52.148;11.568;2023-03-07T21:27:13;2.45;;;2.22;;
6249;SDS011;3158;52.148;11.568;2023-03-07T21:32:14;6.90;;;2.35;;
6249;SDS011;3158;52.148;11.568;2023-03-07T21:37:15;6.90;;;2.83;;
6249;SDS011;3158;52.148;11.568;2023-03-07T21:42:16;1.90;;;1.58;;
6249;SDS011;3158;52.148;11.568;2023-03-07T21:47:17;1.50;;;1.48;;
6249;SDS011;3158;52.148;11.568;2023-03-07T21:52:19;1.42;;;1.25;;
6249;SDS011;3158;52.148;11.568;2023-03-07T21:57:20;0.77;;;0.65;;
6249;SDS011;3158;52.148;11.568;2023-03-07T22:02:21;0.50;;;0.50;;
6249;SDS011;3158;52.148;11.568;2023-03-07T22:07:22;0.20;;;0.20;;
6249;SDS011;3158;52.148;11.568;2023-03-07T22:12:23;1.48;;;0.43;;
6249;SDS011;3158;52.148;11.568;2023-03-07T22:17:24;1.60;;;0.40;;
6249;SDS011;3158;52.148;11.568;2023-03-07T22:22:25;0.65;;;0.52;;
6249;SDS011;3158;52.148;11.568;2023-03-07T22:27:26;7.85;;;0.47;;
6249;SDS011;3158;52.148;11.568;2023-03-07T22:32:27;0.30;;;0.30;;
6249;SDS011;3158;52.148;11.568;2023-03-07T22:37:28;5.82;;;0.65;;
6249;SDS011;3158;52.148;11.568;2023-03-07T22:42:29;1.02;;;0.30;;
6249;SDS011;3158;52.148;11.568;2023-03-07T22:47:30;2.30;;;0.40;;
6249;SDS011;3158;52.148;11.568;2023-03-07T22:52:31;9.57;;;0.47;;
6249;SDS011;3158;52.148;11.568;2023-03-07T22:57:32;1.55;;;0.30;;
6249;SDS011;3158;52.148;11.568;2023-03-07T23:02:33;0.63;;;0.30;;
6249;SDS011;3158;52.148;11.568;2023-03-07T23:07:34;3.92;;;0.93;;
6249;SDS011;3158;52.148;11.568;2023-03-07T23:12:35;0.30;;;0.30;;
6249;SDS011;3158;52.148;11.568;2023-03-07T23:17:36;2.25;;;0.30;;
6249;SDS011;3158;52.148;11.568;2023-03-07T23:22:37;0.73;;;0.25;;
6249;SDS011;3158;52.148;11.568;2023-03-07T23:27:39;1.85;;;0.30;;
6249;SDS011;3158;52.148;11.568;2023-03-07T23:32:40;0.20;;;0.20;;
6249;SDS011;3158;52.148;11.568;2023-03-07T23:37:41;0.20;;;0.20;;
6249;SDS011;3158;52.148;11.568;2023-03-07T23:42:42;0.40;;;0.38;;
6249;SDS011;3158;52.148;11.568;2023-03-07T23:47:43;0.30;;;0.30;;
6249;SDS011;3158;52.148;11.568;2023-03-07T23:52:44;0.20;;;0.20;;
6249;SDS011;3158;52.148;11.568;2023-03-07T23:57:45;0.30;;;0.30;;
